ベレン の空港の天気 - METARとTAF

ベレン国際空港 ( SBBE / BEL ) - ブラジル パラー州ベレン
飛行場実況気象(Metar)
観測時間11/30 12:00 AMT (11/30 16:00 UTC)
風向・風速北西 3m/s
視程10km以上
天気現象
全天の8割程度の雲 雲底高度 760m
気温30℃
湿度70%
気圧1007hPa
METARSBBE 301600Z 32005KT 9999 BKN025 30/24 Q1007
過去の天気等 Google飛行場航空写真 Wunderground天気予報

過去48時間のMETAR

飛行場予報(TAF)
発表時間: 11/30 05:00 AMT (11/30 09:00 UTC)
予報対象時間: 30日8時 AMT ~ 1日8時 AMT
風向・風速東北東 5m/s
視程8000m
全天の4割程度の雲 雲底高度 520m
30日11時 AMT ~ 30日13時 AMT に徐々に
風向・風速北北東 5m/s
視程10km以上
全天の4割程度の雲 雲底高度 760m
少しの塔状積雲 雲底高度 1070m
30日13時 AMT から 確率 30% で
視程7000m
天気現象
全天の8割程度の雲 雲底高度 610m
少しの積乱雲 雲底高度 910m
30日18時 AMT ~ 30日20時 AMT に徐々に
風向・風速北東 4m/s
全天の4割程度の雲 雲底高度 610m
30日21時 AMT ~ 30日23時 AMT に徐々に
風向・風速東北東 4m/s
視程10km以上
なし
1日4時 AMT ~ 1日6時 AMT に徐々に
風向・風速東 4m/s
視程10km以上
全天の4割程度の雲 雲底高度 520m
TAF SBBE 300900Z 3012/0112 06010KT 8000 SCT017 TX29/3016Z TN25/0108Z
BECMG 3015/3017 02010KT 9999 SCT025 FEW035TCU
PROB30 3017/3020 7000 TS BKN020 FEW030CB
BECMG 3022/3024 05007KT SCT020
BECMG 0101/0103 07007KT CAVOK
BECMG 0108/0110 09007KT 9999 SCT017 RMK PGB